Main page
METAR-TAF:

METAR-TAF

Airports :

Passo della Cisa, Italy

latitude: 44-26N, longitude: 009-56E, elevation: 1039 m

Current weather observation

The report was made 1 hour and 15 minutes ago, at 09:55 UTC
Wind 6 kt from the South/Southwest
Temperature 7°C
Humidity 87%
Pressure 1019 hPa
Visibility: 0300 m
fog

METAR: LIMT 230955Z 20006KT 0300 FG VV/// 07/05 Q1019 RMK MON INVIS VAL INVIS VIS MIN 0300

Time: 12:10 (11:10 UTC)


TAF: missing

Weather observations and forecasts of more than 4000 airports (METAR and TAF reports).

The available stations are represented by yellow and red dots on the map.

Hover mouse over dot to see the name of the station.

Then click to see weather observations and forecasts.

To change the map : click on the green buttons with a black cross to zoom in, on the green button with a dash to zoom out, or on the green arrows for adjacent maps.


METAR-TAF: